createdAt,value
2022-12-11T00:01:54.883Z,150737.31
2022-12-11T00:04:25.421Z,150715.47
2022-12-11T00:06:58.770Z,150725.75
2022-12-11T00:09:29.136Z,150701.34
2022-12-11T00:12:00.028Z,150694.91
2022-12-11T00:14:30.284Z,150694.91
2022-12-11T00:17:00.633Z,150693.66
2022-12-11T00:19:31.027Z,150682.03
2022-12-11T00:22:05.114Z,150676.91
2022-12-11T00:24:35.440Z,150680.78
2022-12-11T00:27:05.523Z,150652.47
2022-12-11T00:29:36.913Z,150680.78
2022-12-11T00:32:07.334Z,150664.06
2022-12-11T00:34:37.465Z,150656.34
2022-12-11T00:37:10.278Z,150656.34
2022-12-11T00:39:41.262Z,150646.06
2022-12-11T00:42:11.812Z,150656.34
2022-12-11T00:44:42.140Z,150647.34
2022-12-11T00:47:12.853Z,150660.22
2022-12-11T00:49:50.202Z,150644.78
2022-12-11T00:52:23.158Z,150656.34
2022-12-11T00:54:53.490Z,150639.66
2022-12-11T00:57:23.490Z,150640.94
2022-12-11T00:59:53.523Z,150639.66
2022-12-11T01:02:23.760Z,150657.63
2022-12-11T01:04:54.122Z,150625.50
2022-12-11T01:07:28.068Z,150617.78
2022-12-11T01:10:10.447Z,150620.38
2022-12-11T01:12:40.642Z,150607.50
2022-12-11T01:15:12.932Z,150613.91
2022-12-11T01:17:43.599Z,150597.22
2022-12-11T01:20:14.808Z,150599.75
2022-12-11T01:22:47.635Z,150590.81
2022-12-11T01:25:18.323Z,150585.66
2022-12-11T01:27:48.628Z,150588.22
2022-12-11T01:30:18.758Z,150576.66
2022-12-11T01:32:49.263Z,150580.53
2022-12-11T01:35:21.267Z,150548.38
2022-12-11T01:37:54.778Z,150538.09
2022-12-11T01:40:26.320Z,150530.38
2022-12-11T01:42:56.536Z,150523.94
2022-12-11T01:45:32.784Z,150504.69
2022-12-11T01:48:11.635Z,150500.81
2022-12-11T01:50:47.659Z,150476.41
2022-12-11T01:53:24.945Z,150458.44
2022-12-11T01:55:58.469Z,150448.16
2022-12-11T01:58:34.273Z,150430.16
2022-12-11T02:01:07.147Z,150409.63
2022-12-11T02:03:37.418Z,150399.34
2022-12-11T02:06:08.256Z,150405.75
2022-12-11T02:08:41.105Z,150382.63
2022-12-11T02:11:17.449Z,150365.94
2022-12-11T02:13:55.731Z,150355.69
2022-12-11T02:16:33.045Z,150346.69
2022-12-11T02:19:11.522Z,150342.81
2022-12-11T02:21:47.979Z,150318.41
2022-12-11T02:24:43.140Z,150314.56
2022-12-11T02:27:27.235Z,150314.56
2022-12-11T02:30:03.446Z,150312.00
2022-12-11T02:32:40.389Z,150310.72
2022-12-11T02:35:16.776Z,150312.00
2022-12-11T02:37:50.504Z,150315.88
2022-12-11T02:40:26.370Z,150317.13
2022-12-11T02:42:59.460Z,150312.00
2022-12-11T02:45:35.029Z,150319.69
2022-12-11T02:48:08.556Z,150312.00
2022-12-11T02:50:42.177Z,150317.13
2022-12-11T02:53:15.688Z,150319.69
2022-12-11T02:55:47.819Z,150308.13
2022-12-11T02:58:21.305Z,150308.13
2022-12-11T03:00:55.355Z,150306.88
2022-12-11T03:03:26.863Z,150303.00
2022-12-11T03:05:57.111Z,150308.13
2022-12-11T03:08:28.060Z,150304.28
2022-12-11T03:10:58.353Z,150312.00
2022-12-11T03:13:28.621Z,150314.56
2022-12-11T03:16:14.391Z,150308.13
2022-12-11T03:18:52.030Z,150309.41
2022-12-11T03:21:29.708Z,150305.59
2022-12-11T03:24:06.972Z,150322.28
2022-12-11T03:26:44.128Z,150314.56
2022-12-11T03:29:20.542Z,150327.41
2022-12-11T03:31:57.689Z,150324.81
2022-12-11T03:34:33.214Z,150337.69
2022-12-11T03:37:04.292Z,150336.41
2022-12-11T03:39:37.397Z,150347.94
2022-12-11T03:42:11.377Z,150351.81
2022-12-11T03:44:42.059Z,150353.09
2022-12-11T03:47:19.293Z,150364.69
2022-12-11T03:49:51.553Z,150373.63
2022-12-11T03:52:23.013Z,150382.63
2022-12-11T03:54:54.740Z,150396.75
2022-12-11T03:57:28.897Z,150387.75
2022-12-11T03:59:59.065Z,150398.03
2022-12-11T04:02:35.301Z,150395.50
2022-12-11T04:05:06.132Z,150412.16
2022-12-11T04:07:36.223Z,150405.75
2022-12-11T04:10:07.987Z,150412.16
2022-12-11T04:12:38.027Z,150419.91
2022-12-11T04:15:10.342Z,150422.44
2022-12-11T04:17:59.133Z,150413.47
2022-12-11T04:20:41.667Z,150412.16
2022-12-11T04:23:28.853Z,150422.44
2022-12-11T04:26:07.956Z,150416.03
2022-12-11T04:28:38.972Z,150428.91
2022-12-11T04:31:11.146Z,150422.44
2022-12-11T04:33:44.334Z,150422.44
2022-12-11T04:36:15.871Z,150414.75
2022-12-11T04:38:45.955Z,150412.16
2022-12-11T04:41:18.292Z,150414.75
2022-12-11T04:43:49.044Z,150413.47
2022-12-11T04:46:21.779Z,150407.03
2022-12-11T04:48:57.882Z,150413.47
2022-12-11T04:51:35.527Z,150422.44
2022-12-11T04:54:05.759Z,150419.91
2022-12-11T04:56:35.821Z,150421.16
2022-12-11T04:59:06.149Z,150409.63
2022-12-11T05:01:36.353Z,150412.16
2022-12-11T05:04:09.627Z,150419.91
2022-12-11T05:06:39.797Z,150412.16
2022-12-11T05:09:10.016Z,150418.63
2022-12-11T05:11:40.129Z,150416.03
2022-12-11T05:14:10.148Z,150416.03
2022-12-11T05:16:40.451Z,150418.63
2022-12-11T05:19:13.513Z,150416.03
2022-12-11T05:21:44.215Z,150417.31
2022-12-11T05:24:14.410Z,150409.63
2022-12-11T05:26:44.642Z,150426.31
2022-12-11T05:29:14.874Z,150427.56
2022-12-11T05:31:45.137Z,150425.03
2022-12-11T05:34:18.128Z,150426.31
2022-12-11T05:36:48.497Z,150430.16
2022-12-11T05:39:18.678Z,150432.72
2022-12-11T05:41:48.772Z,150431.44
2022-12-11T05:44:18.748Z,150422.44
2022-12-11T05:46:49.874Z,150426.31
2022-12-11T05:49:27.414Z,150416.03
2022-12-11T05:52:01.150Z,150412.16
2022-12-11T05:54:31.208Z,150416.03
2022-12-11T05:57:01.715Z,150419.91
2022-12-11T05:59:31.772Z,150412.16
2022-12-11T06:02:02.233Z,150419.91
2022-12-11T06:04:34.966Z,150418.63
2022-12-11T06:07:05.083Z,150427.56
2022-12-11T06:09:35.225Z,150431.44
2022-12-11T06:12:05.312Z,150425.03
2022-12-11T06:14:35.332Z,150437.91
2022-12-11T06:17:06.574Z,150434.03
2022-12-11T06:19:39.899Z,150437.91
2022-12-11T06:22:09.926Z,150435.31
2022-12-11T06:24:40.396Z,150431.44
2022-12-11T06:27:10.808Z,150440.44
2022-12-11T06:29:41.035Z,150435.31
2022-12-11T06:32:11.161Z,150441.72
2022-12-11T06:34:44.139Z,150454.56
2022-12-11T06:37:14.456Z,150463.56
2022-12-11T06:39:44.742Z,150468.72
2022-12-11T06:42:14.822Z,150458.44
2022-12-11T06:44:45.273Z,150454.56
2022-12-11T06:47:15.426Z,150455.84
2022-12-11T06:49:48.719Z,150458.44
2022-12-11T06:52:18.885Z,150455.84
2022-12-11T06:54:48.917Z,150466.13
2022-12-11T06:57:19.858Z,150449.44
2022-12-11T06:59:50.641Z,150451.97
2022-12-11T07:02:22.488Z,150454.56
2022-12-11T07:04:55.569Z,150461.00
2022-12-11T07:07:25.779Z,150466.13
2022-12-11T07:09:56.280Z,150472.59
2022-12-11T07:12:26.502Z,150473.84
2022-12-11T07:14:56.707Z,150479.00
2022-12-11T07:17:27.182Z,150498.28
2022-12-11T07:20:00.375Z,150495.66
2022-12-11T07:22:32.308Z,150511.09
2022-12-11T07:25:02.515Z,150520.09
2022-12-11T07:27:32.887Z,150521.41
2022-12-11T07:30:03.126Z,150520.09
2022-12-11T07:32:33.269Z,150527.81
2022-12-11T07:35:07.005Z,150534.22
2022-12-11T07:37:38.592Z,150535.50
2022-12-11T07:40:11.439Z,150545.78
2022-12-11T07:42:46.261Z,150559.91
2022-12-11T07:45:23.548Z,150562.50
2022-12-11T07:48:04.383Z,150567.66
2022-12-11T07:50:40.027Z,150570.19
2022-12-11T07:53:13.460Z,150575.38
2022-12-11T07:55:44.285Z,150584.34
2022-12-11T07:58:18.789Z,150589.47
2022-12-11T08:00:52.325Z,150594.63
2022-12-11T08:03:23.748Z,150603.63
2022-12-11T08:05:56.523Z,150612.63
2022-12-11T08:08:29.746Z,150624.19
2022-12-11T08:11:04.414Z,150638.31
2022-12-11T08:13:35.631Z,150625.50
2022-12-11T08:16:07.863Z,150647.34
2022-12-11T08:18:39.248Z,150640.94
2022-12-11T08:21:14.342Z,150656.34
2022-12-11T08:23:44.716Z,150674.34
2022-12-11T08:26:18.719Z,150655.06
2022-12-11T08:28:49.362Z,150656.34
2022-12-11T08:31:20.687Z,150665.34
2022-12-11T08:33:51.884Z,150676.91
2022-12-11T08:36:26.274Z,150683.38
2022-12-11T08:38:58.253Z,150676.91
2022-12-11T08:41:30.579Z,150685.91
2022-12-11T08:44:01.957Z,150696.19
2022-12-11T08:46:36.666Z,150712.94
2022-12-11T08:49:08.044Z,150718.06
2022-12-11T08:51:41.267Z,150712.94
2022-12-11T08:54:12.999Z,150719.34
2022-12-11T08:56:43.033Z,150716.75
2022-12-11T08:59:13.176Z,150715.47
2022-12-11T09:01:43.254Z,150743.78
2022-12-11T09:04:13.324Z,150732.19
2022-12-11T09:06:46.131Z,150728.34
2022-12-11T09:09:16.310Z,150733.50
2022-12-11T09:11:46.691Z,150721.91
2022-12-11T09:14:16.911Z,150755.34
2022-12-11T09:16:47.078Z,150748.91
2022-12-11T09:19:19.313Z,150742.50
2022-12-11T09:21:52.191Z,150777.22
2022-12-11T09:24:22.434Z,150752.78
2022-12-11T09:26:52.428Z,150733.50
2022-12-11T09:29:22.729Z,150754.06
2022-12-11T09:31:52.842Z,150755.34
2022-12-11T09:34:29.040Z,150752.78
2022-12-11T09:37:02.496Z,150761.75
2022-12-11T09:39:33.820Z,150761.75
2022-12-11T09:42:11.697Z,150764.34
2022-12-11T09:44:45.643Z,150754.06
2022-12-11T09:47:24.165Z,150784.91
2022-12-11T09:50:01.795Z,150756.63
2022-12-11T09:52:37.969Z,150754.06
2022-12-11T09:55:17.595Z,150746.31
2022-12-11T09:57:57.765Z,150766.94
2022-12-11T10:00:36.577Z,150781.06
2022-12-11T10:03:36.195Z,150769.50
2022-12-11T10:06:15.741Z,150763.06
2022-12-11T10:09:00.350Z,150761.75
2022-12-11T10:11:56.105Z,150766.94
2022-12-11T10:14:35.670Z,150786.19
2022-12-11T10:17:10.222Z,150766.94
2022-12-11T10:19:41.192Z,150756.63
2022-12-11T10:22:20.635Z,150761.75
2022-12-11T10:25:15.023Z,150756.63
2022-12-11T10:27:45.488Z,150782.38
2022-12-11T10:30:19.784Z,150792.66
2022-12-11T10:32:56.737Z,150784.91
2022-12-11T10:35:40.047Z,150766.94
2022-12-11T10:38:18.628Z,150765.63
2022-12-11T10:40:55.263Z,150763.06
2022-12-11T10:43:35.943Z,150752.78
2022-12-11T10:46:07.688Z,150755.34
2022-12-11T10:48:42.540Z,150748.91
2022-12-11T10:51:16.660Z,150770.75
2022-12-11T10:53:47.530Z,150751.47
2022-12-11T10:56:30.113Z,150763.06
2022-12-11T10:59:02.609Z,150772.09
2022-12-11T11:01:35.657Z,150769.50
2022-12-11T11:04:09.512Z,150787.50
2022-12-11T11:06:39.235Z,150782.38
2022-12-11T11:09:32.059Z,150787.50
2022-12-11T11:12:08.072Z,150797.81
2022-12-11T11:14:38.767Z,150779.78
2022-12-11T11:17:08.968Z,150787.50
2022-12-11T11:19:40.210Z,150802.94
2022-12-11T11:22:15.829Z,150791.34
2022-12-11T11:24:48.819Z,150811.94
2022-12-11T11:27:31.452Z,150844.09
2022-12-11T11:30:04.094Z,150824.78
2022-12-11T11:32:37.160Z,150813.22
2022-12-11T11:35:25.757Z,150817.09
2022-12-11T11:38:07.296Z,150810.63
2022-12-11T11:40:44.154Z,150820.97
2022-12-11T11:43:22.797Z,150832.53
2022-12-11T11:45:58.509Z,150815.78
2022-12-11T11:48:38.918Z,150838.94
2022-12-11T11:51:22.764Z,150831.25
2022-12-11T11:53:54.666Z,150831.25
2022-12-11T11:56:31.688Z,150815.78
2022-12-11T11:59:15.194Z,150849.22
2022-12-11T12:01:46.387Z,150828.66
2022-12-11T12:04:18.243Z,150835.06
2022-12-11T12:07:03.497Z,150817.09
2022-12-11T12:09:46.689Z,150805.50
2022-12-11T12:12:31.051Z,150809.34
2022-12-11T12:15:29.375Z,150813.22
2022-12-11T12:18:02.219Z,150805.50
2022-12-11T12:20:40.540Z,150787.50
2022-12-11T12:23:34.868Z,150792.66
2022-12-11T12:26:14.052Z,150777.22
2022-12-11T12:28:52.007Z,150782.38
2022-12-11T12:31:40.111Z,150779.78
2022-12-11T12:34:21.298Z,150787.50
2022-12-11T12:37:01.072Z,150783.66
2022-12-11T12:39:39.954Z,150774.63
2022-12-11T12:42:21.036Z,150802.94
2022-12-11T12:45:01.487Z,150797.81
2022-12-11T12:47:37.725Z,150783.66
2022-12-11T12:50:15.301Z,150777.22
2022-12-11T12:52:49.513Z,150777.22
2022-12-11T12:55:26.221Z,150765.63
2022-12-11T12:58:00.454Z,150765.63
2022-12-11T13:00:36.589Z,150759.22
2022-12-11T13:03:17.215Z,150754.06
2022-12-11T13:05:57.814Z,150760.47
2022-12-11T13:08:28.952Z,150764.34
2022-12-11T13:11:07.960Z,150752.78
2022-12-11T13:13:40.884Z,150739.91
2022-12-11T13:16:30.129Z,150747.66
2022-12-11T13:19:03.094Z,150738.66
2022-12-11T13:21:35.994Z,150719.34
2022-12-11T13:24:27.374Z,150719.34
2022-12-11T13:26:58.120Z,150698.78
2022-12-11T13:29:32.230Z,150697.47
2022-12-11T13:32:04.444Z,150697.47
2022-12-11T13:34:40.820Z,150702.59
2022-12-11T13:37:27.976Z,150698.78
2022-12-11T13:39:59.420Z,150709.06
2022-12-11T13:42:35.594Z,150689.78
2022-12-11T13:45:07.206Z,150682.03
2022-12-11T13:47:39.658Z,150678.16
2022-12-11T13:50:22.433Z,150673.03
2022-12-11T13:52:59.584Z,150669.22
2022-12-11T13:55:32.637Z,150661.47
2022-12-11T13:58:03.478Z,150651.19
2022-12-11T14:00:35.673Z,150648.59
2022-12-11T14:03:09.163Z,150655.06
2022-12-11T14:05:44.529Z,150649.94
2022-12-11T14:08:21.440Z,150651.19
2022-12-11T14:10:56.026Z,150646.06
2022-12-11T14:13:30.485Z,150635.78
2022-12-11T14:16:00.786Z,150635.78
2022-12-11T14:18:34.821Z,150631.91
2022-12-11T14:21:09.241Z,150635.78
2022-12-11T14:23:40.496Z,150633.19
2022-12-11T14:26:21.605Z,150635.78
2022-12-11T14:28:52.048Z,150625.50
2022-12-11T14:31:35.165Z,150633.19
2022-12-11T14:34:10.644Z,150616.50
2022-12-11T14:36:44.517Z,150615.22
2022-12-11T14:39:16.934Z,150606.22
2022-12-11T14:41:55.886Z,150616.50
2022-12-11T14:44:29.422Z,150604.94
2022-12-11T14:47:03.917Z,150604.94
2022-12-11T14:49:44.505Z,150594.63
2022-12-11T14:52:24.223Z,150604.94
2022-12-11T14:54:58.119Z,150584.34
2022-12-11T14:57:30.635Z,150575.38
2022-12-11T15:00:01.352Z,150571.53
2022-12-11T15:02:34.228Z,150568.94
2022-12-11T15:05:15.445Z,150572.78
2022-12-11T15:07:58.995Z,150571.53
2022-12-11T15:10:36.477Z,150556.09
2022-12-11T15:13:08.822Z,150561.25
2022-12-11T15:15:48.262Z,150554.78
2022-12-11T15:18:25.229Z,150562.50
2022-12-11T15:21:00.179Z,150549.66
2022-12-11T15:23:34.123Z,150539.38
2022-12-11T15:26:05.412Z,150532.97
2022-12-11T15:28:38.335Z,150530.38
2022-12-11T15:31:23.603Z,150536.81
2022-12-11T15:33:54.102Z,150511.09
2022-12-11T15:36:28.263Z,150514.94
2022-12-11T15:39:02.005Z,150500.81
2022-12-11T15:41:34.751Z,150499.53
2022-12-11T15:44:06.652Z,150509.81
2022-12-11T15:46:40.051Z,150503.41
2022-12-11T15:49:15.523Z,150507.25
2022-12-11T15:51:45.710Z,150504.69
2022-12-11T15:54:18.421Z,150491.84
2022-12-11T15:56:48.855Z,150497.00
2022-12-11T15:59:19.381Z,150499.53
2022-12-11T16:01:49.527Z,150476.41
2022-12-11T16:04:19.606Z,150480.25
2022-12-11T16:06:49.702Z,150484.13
2022-12-11T16:09:22.659Z,150476.41
2022-12-11T16:11:52.820Z,150494.41
2022-12-11T16:14:23.028Z,150476.41
2022-12-11T16:16:53.053Z,150473.84
2022-12-11T16:19:23.168Z,150479.00
2022-12-11T16:21:53.362Z,150464.84
2022-12-11T16:24:26.284Z,150471.25
2022-12-11T16:26:56.739Z,150457.13
2022-12-11T16:29:27.032Z,150457.13
2022-12-11T16:31:57.674Z,150441.72
2022-12-11T16:34:28.601Z,150458.44
2022-12-11T16:37:01.512Z,150426.31
2022-12-11T16:39:34.385Z,150427.56
2022-12-11T16:42:04.523Z,150443.03
2022-12-11T16:44:38.347Z,150426.31
2022-12-11T16:47:14.298Z,150422.44
2022-12-11T16:49:45.380Z,150430.16
2022-12-11T16:52:21.813Z,150441.72
2022-12-11T16:54:55.068Z,150404.47
2022-12-11T16:57:25.095Z,150403.16
2022-12-11T16:59:55.626Z,150389.06
2022-12-11T17:02:26.494Z,150389.06
2022-12-11T17:04:56.684Z,150385.22
2022-12-11T17:07:27.181Z,150392.88
2022-12-11T17:10:00.950Z,150369.81
2022-12-11T17:12:31.048Z,150373.63
2022-12-11T17:15:01.409Z,150372.34
2022-12-11T17:17:33.268Z,150382.63
2022-12-11T17:20:03.319Z,150367.22
2022-12-11T17:22:33.522Z,150356.94
2022-12-11T17:25:07.063Z,150358.22
2022-12-11T17:27:38.169Z,150362.09
2022-12-11T17:30:09.574Z,150349.22
2022-12-11T17:32:39.919Z,150336.41
2022-12-11T17:35:11.226Z,150344.09
2022-12-11T17:37:41.758Z,150332.53
2022-12-11T17:40:15.133Z,150332.53
2022-12-11T17:42:45.830Z,150312.00
2022-12-11T17:45:19.090Z,150317.13
2022-12-11T17:47:50.044Z,150309.41
2022-12-11T17:50:20.108Z,150304.28
2022-12-11T17:52:50.479Z,150291.47
2022-12-11T17:55:23.347Z,150299.16
2022-12-11T17:57:53.704Z,150303.00
2022-12-11T18:00:25.385Z,150290.16
2022-12-11T18:02:58.076Z,150291.47
2022-12-11T18:05:28.893Z,150282.47
2022-12-11T18:08:00.542Z,150273.47
2022-12-11T18:10:33.327Z,150277.34
2022-12-11T18:13:03.626Z,150265.75
2022-12-11T18:15:37.107Z,150268.34
2022-12-11T18:18:10.498Z,150278.59
2022-12-11T18:20:41.438Z,150265.75
2022-12-11T18:23:11.649Z,150256.81
2022-12-11T18:25:44.459Z,150246.53
2022-12-11T18:28:15.288Z,150223.41
2022-12-11T18:30:46.122Z,150237.53
2022-12-11T18:33:16.485Z,150227.28
2022-12-11T18:35:47.805Z,150233.69
2022-12-11T18:38:17.880Z,150229.81
2022-12-11T18:40:50.822Z,150246.53
2022-12-11T18:43:21.646Z,150242.69
2022-12-11T18:45:52.347Z,150237.53
2022-12-11T18:48:22.447Z,150240.09
2022-12-11T18:50:53.960Z,150245.22
2022-12-11T18:53:24.184Z,150233.69
2022-12-11T18:56:00.357Z,150236.22
2022-12-11T18:58:30.779Z,150243.94
2022-12-11T19:01:01.796Z,150220.81
2022-12-11T19:03:32.207Z,150232.41
2022-12-11T19:06:10.124Z,150233.69
2022-12-11T19:08:40.648Z,150219.56
2022-12-11T19:11:18.047Z,150215.69
2022-12-11T19:13:48.867Z,150209.28
2022-12-11T19:16:21.114Z,150199.03
2022-12-11T19:18:52.511Z,150201.56
2022-12-11T19:21:22.791Z,150186.16
2022-12-11T19:23:53.046Z,150174.63
2022-12-11T19:26:27.710Z,150173.38
2022-12-11T19:29:00.235Z,150165.63
2022-12-11T19:31:32.063Z,150175.91
2022-12-11T19:34:03.249Z,150164.38
2022-12-11T19:36:35.638Z,150166.91
2022-12-11T19:39:12.575Z,150169.50
2022-12-11T19:41:46.302Z,150179.75
2022-12-11T19:44:16.367Z,150169.50
2022-12-11T19:46:46.898Z,150164.38
2022-12-11T19:49:17.200Z,150178.50
2022-12-11T19:51:47.587Z,150168.22
2022-12-11T19:54:19.251Z,150155.38
2022-12-11T19:56:52.161Z,150147.66
2022-12-11T19:59:22.262Z,150157.91
2022-12-11T20:01:54.145Z,150154.09
2022-12-11T20:04:24.340Z,150147.66
2022-12-11T20:06:54.658Z,150142.53
2022-12-11T20:09:24.811Z,150148.97
2022-12-11T20:11:57.728Z,150131.00
2022-12-11T20:14:30.384Z,150146.38
2022-12-11T20:17:16.148Z,150142.53
2022-12-11T20:19:46.353Z,150124.59
2022-12-11T20:22:16.485Z,150110.47
2022-12-11T20:24:46.544Z,150122.00
2022-12-11T20:27:19.259Z,150115.59
2022-12-11T20:29:49.434Z,150102.75
2022-12-11T20:32:19.467Z,150109.19
2022-12-11T20:34:49.463Z,150092.47
2022-12-11T20:37:20.031Z,150098.88
2022-12-11T20:39:50.137Z,150104.00
2022-12-11T20:42:22.874Z,150097.63
2022-12-11T20:44:53.664Z,150084.81
2022-12-11T20:47:24.138Z,150084.81
2022-12-11T20:49:55.241Z,150066.84
2022-12-11T20:52:25.618Z,150073.22
2022-12-11T20:54:55.799Z,150068.09
2022-12-11T20:57:28.723Z,150078.34
2022-12-11T20:59:59.251Z,150057.84
2022-12-11T21:02:31.328Z,150050.13
2022-12-11T21:05:01.475Z,150025.78
2022-12-11T21:07:31.674Z,150009.09
2022-12-11T21:10:01.728Z,150012.94
2022-12-11T21:12:34.607Z,149998.81
2022-12-11T21:15:04.762Z,149993.69
2022-12-11T21:17:35.100Z,150006.53
2022-12-11T21:20:05.258Z,149973.19
2022-12-11T21:22:35.307Z,149978.31
2022-12-11T21:25:05.559Z,149959.06
2022-12-11T21:27:38.477Z,149964.19
2022-12-11T21:30:09.933Z,149928.31
2022-12-11T21:32:40.083Z,149941.09
2022-12-11T21:35:11.932Z,149916.72
2022-12-11T21:37:42.687Z,149939.81
2022-12-11T21:40:13.979Z,149896.22
2022-12-11T21:42:48.453Z,149888.50
2022-12-11T21:45:59.238Z,149903.94
2022-12-11T21:48:09.782Z,149875.72
2022-12-11T21:50:40.020Z,149865.44
2022-12-11T21:53:10.443Z,149866.72
2022-12-11T21:55:43.442Z,149865.44
2022-12-11T21:58:16.082Z,149871.84
2022-12-11T22:00:50.615Z,149864.19
2022-12-11T22:03:20.732Z,149850.06
2022-12-11T22:05:50.933Z,149839.81
2022-12-11T22:08:21.322Z,149823.13
2022-12-11T22:10:52.326Z,149820.59
2022-12-11T22:13:25.054Z,149823.13
2022-12-11T22:15:55.582Z,149788.50
2022-12-11T22:18:27.187Z,149784.66
2022-12-11T22:20:57.688Z,149791.09
2022-12-11T22:23:28.074Z,149789.78
2022-12-11T22:25:58.159Z,149792.38
2022-12-11T22:28:30.808Z,149793.63
2022-12-11T22:31:04.597Z,149811.59
2022-12-11T22:33:35.129Z,149771.88
2022-12-11T22:36:05.391Z,149756.50
2022-12-11T22:38:36.915Z,149734.69
2022-12-11T22:41:17.559Z,149688.56
2022-12-11T22:43:55.284Z,149702.66
2022-12-11T22:46:28.340Z,149701.34
2022-12-11T22:48:59.608Z,149680.84
2022-12-11T22:51:30.100Z,149688.56
2022-12-11T22:54:01.351Z,149701.34
2022-12-11T22:56:31.518Z,149711.59
2022-12-11T22:59:04.455Z,149715.44
2022-12-11T23:01:34.749Z,149707.78
2022-12-11T23:04:04.829Z,149727.00
2022-12-11T23:06:34.918Z,149714.19
2022-12-11T23:09:05.411Z,149739.81
2022-12-11T23:11:38.554Z,149728.28
2022-12-11T23:14:14.273Z,149734.69
2022-12-11T23:16:45.293Z,149750.06
2022-12-11T23:19:18.522Z,149751.31
2022-12-11T23:21:51.430Z,149761.63
2022-12-11T23:24:21.509Z,149760.31
2022-12-11T23:26:52.250Z,149753.91
2022-12-11T23:29:25.053Z,149760.31
2022-12-11T23:31:55.242Z,149753.91
2022-12-11T23:34:25.312Z,149757.75
2022-12-11T23:36:55.641Z,149747.50
2022-12-11T23:39:25.885Z,149747.50
2022-12-11T23:41:56.029Z,149742.38
2022-12-11T23:44:28.762Z,149746.19
2022-12-11T23:46:59.373Z,149747.50
2022-12-11T23:49:30.417Z,149742.38
2022-12-11T23:52:08.861Z,149719.31
2022-12-11T23:54:39.194Z,149732.13
2022-12-11T23:57:09.429Z,149729.56
2022-12-11T23:59:47.105Z,149729.56
